sensor_id;sensor_type;location;lat;lon;timestamp;P1;durP1;ratioP1;P2;durP2;ratioP2
48403;SDS011;34202;52.536;6.042;2023-03-03T00:04:55;41.20;;;21.80;;
48403;SDS011;34202;52.536;6.042;2023-03-03T00:09:56;39.50;;;22.20;;
48403;SDS011;34202;52.536;6.042;2023-03-03T00:14:56;38.20;;;20.50;;
48403;SDS011;34202;52.536;6.042;2023-03-03T00:19:57;37.20;;;17.90;;
48403;SDS011;34202;52.536;6.042;2023-03-03T00:30:27;41.80;;;21.50;;
48403;SDS011;34202;52.536;6.042;2023-03-03T00:35:29;42.20;;;23.40;;
48403;SDS011;34202;52.536;6.042;2023-03-03T00:40:35;35.90;;;19.30;;
48403;SDS011;34202;52.536;6.042;2023-03-03T00:45:56;36.30;;;20.50;;
48403;SDS011;34202;52.536;6.042;2023-03-03T00:50:58;42.80;;;23.60;;
48403;SDS011;34202;52.536;6.042;2023-03-03T00:55:59;44.70;;;22.80;;
48403;SDS011;34202;52.536;6.042;2023-03-03T01:01:00;36.90;;;21.90;;
48403;SDS011;34202;52.536;6.042;2023-03-03T01:06:00;34.00;;;17.60;;
48403;SDS011;34202;52.536;6.042;2023-03-03T01:11:20;29.90;;;14.60;;
48403;SDS011;34202;52.536;6.042;2023-03-03T01:16:22;40.80;;;22.40;;
48403;SDS011;34202;52.536;6.042;2023-03-03T01:21:23;33.80;;;19.60;;
48403;SDS011;34202;52.536;6.042;2023-03-03T01:26:24;33.90;;;18.10;;
48403;SDS011;34202;52.536;6.042;2023-03-03T01:31:25;33.40;;;18.00;;
48403;SDS011;34202;52.536;6.042;2023-03-03T01:36:26;28.90;;;17.20;;
48403;SDS011;34202;52.536;6.042;2023-03-03T01:41:28;32.10;;;18.90;;
48403;SDS011;34202;52.536;6.042;2023-03-03T01:56:53;31.10;;;16.10;;
48403;SDS011;34202;52.536;6.042;2023-03-03T02:01:58;33.00;;;16.70;;
48403;SDS011;34202;52.536;6.042;2023-03-03T02:06:59;29.80;;;17.20;;
48403;SDS011;34202;52.536;6.042;2023-03-03T02:12:07;33.90;;;19.00;;
48403;SDS011;34202;52.536;6.042;2023-03-03T02:17:10;32.60;;;17.40;;
48403;SDS011;34202;52.536;6.042;2023-03-03T02:22:11;29.30;;;16.00;;
48403;SDS011;34202;52.536;6.042;2023-03-03T02:32:17;30.50;;;17.60;;
48403;SDS011;34202;52.536;6.042;2023-03-03T02:37:18;34.70;;;17.50;;
48403;SDS011;34202;52.536;6.042;2023-03-03T02:42:23;28.70;;;15.90;;
48403;SDS011;34202;52.536;6.042;2023-03-03T02:47:27;34.60;;;16.90;;
48403;SDS011;34202;52.536;6.042;2023-03-03T02:52:27;32.20;;;15.10;;
48403;SDS011;34202;52.536;6.042;2023-03-03T02:57:28;33.20;;;18.40;;
48403;SDS011;34202;52.536;6.042;2023-03-03T03:02:28;33.80;;;16.20;;
48403;SDS011;34202;52.536;6.042;2023-03-03T03:07:29;32.70;;;14.80;;
48403;SDS011;34202;52.536;6.042;2023-03-03T03:12:29;32.70;;;16.00;;
48403;SDS011;34202;52.536;6.042;2023-03-03T03:17:30;42.30;;;19.70;;
48403;SDS011;34202;52.536;6.042;2023-03-03T03:22:30;38.50;;;16.30;;
48403;SDS011;34202;52.536;6.042;2023-03-03T03:27:31;41.30;;;15.70;;
48403;SDS011;34202;52.536;6.042;2023-03-03T03:32:31;32.30;;;15.10;;
48403;SDS011;34202;52.536;6.042;2023-03-03T03:37:31;29.10;;;13.80;;
48403;SDS011;34202;52.536;6.042;2023-03-03T03:42:32;36.10;;;16.50;;
48403;SDS011;34202;52.536;6.042;2023-03-03T03:47:32;37.20;;;16.60;;
48403;SDS011;34202;52.536;6.042;2023-03-03T03:52:32;43.10;;;17.20;;
48403;SDS011;34202;52.536;6.042;2023-03-03T03:57:33;47.60;;;15.50;;
48403;SDS011;34202;52.536;6.042;2023-03-03T04:02:34;49.70;;;18.30;;
48403;SDS011;34202;52.536;6.042;2023-03-03T04:07:35;40.20;;;18.30;;
48403;SDS011;34202;52.536;6.042;2023-03-03T04:12:35;36.00;;;16.40;;
48403;SDS011;34202;52.536;6.042;2023-03-03T04:17:39;37.70;;;17.70;;
48403;SDS011;34202;52.536;6.042;2023-03-03T04:22:39;33.60;;;14.80;;
48403;SDS011;34202;52.536;6.042;2023-03-03T04:27:39;42.60;;;13.90;;
48403;SDS011;34202;52.536;6.042;2023-03-03T04:32:40;31.50;;;12.70;;
48403;SDS011;34202;52.536;6.042;2023-03-03T04:37:40;29.70;;;13.10;;
48403;SDS011;34202;52.536;6.042;2023-03-03T04:42:41;43.30;;;15.10;;
48403;SDS011;34202;52.536;6.042;2023-03-03T04:47:41;30.00;;;11.10;;
48403;SDS011;34202;52.536;6.042;2023-03-03T04:52:42;37.90;;;15.70;;
48403;SDS011;34202;52.536;6.042;2023-03-03T04:57:42;43.90;;;17.50;;
48403;SDS011;34202;52.536;6.042;2023-03-03T05:02:42;31.00;;;13.80;;
48403;SDS011;34202;52.536;6.042;2023-03-03T05:07:43;32.40;;;13.40;;
48403;SDS011;34202;52.536;6.042;2023-03-03T05:12:43;44.50;;;16.10;;
48403;SDS011;34202;52.536;6.042;2023-03-03T05:17:43;46.70;;;16.00;;
48403;SDS011;34202;52.536;6.042;2023-03-03T05:22:44;33.60;;;15.40;;
48403;SDS011;34202;52.536;6.042;2023-03-03T05:27:44;46.10;;;15.10;;
48403;SDS011;34202;52.536;6.042;2023-03-03T05:32:44;33.30;;;12.10;;
48403;SDS011;34202;52.536;6.042;2023-03-03T05:37:45;37.10;;;16.30;;
48403;SDS011;34202;52.536;6.042;2023-03-03T05:42:48;37.40;;;14.20;;
48403;SDS011;34202;52.536;6.042;2023-03-03T05:47:49;41.40;;;17.00;;
48403;SDS011;34202;52.536;6.042;2023-03-03T05:52:51;43.20;;;16.00;;
48403;SDS011;34202;52.536;6.042;2023-03-03T05:57:51;37.70;;;15.10;;
48403;SDS011;34202;52.536;6.042;2023-03-03T06:02:52;45.60;;;16.90;;
48403;SDS011;34202;52.536;6.042;2023-03-03T06:07:52;36.90;;;14.80;;
48403;SDS011;34202;52.536;6.042;2023-03-03T06:12:53;42.60;;;15.10;;
48403;SDS011;34202;52.536;6.042;2023-03-03T06:17:54;41.40;;;15.80;;
48403;SDS011;34202;52.536;6.042;2023-03-03T06:22:54;42.10;;;16.00;;
48403;SDS011;34202;52.536;6.042;2023-03-03T06:27:55;48.40;;;18.10;;
48403;SDS011;34202;52.536;6.042;2023-03-03T06:32:57;41.40;;;16.10;;
48403;SDS011;34202;52.536;6.042;2023-03-03T06:37:57;50.00;;;19.10;;
48403;SDS011;34202;52.536;6.042;2023-03-03T06:42:58;47.90;;;16.30;;
48403;SDS011;34202;52.536;6.042;2023-03-03T06:47:58;40.00;;;14.40;;
48403;SDS011;34202;52.536;6.042;2023-03-03T06:53:14;47.00;;;15.90;;
48403;SDS011;34202;52.536;6.042;2023-03-03T06:58:16;42.20;;;13.70;;
48403;SDS011;34202;52.536;6.042;2023-03-03T07:03:31;37.40;;;14.70;;
48403;SDS011;34202;52.536;6.042;2023-03-03T07:08:33;32.20;;;14.10;;
48403;SDS011;34202;52.536;6.042;2023-03-03T07:13:35;36.70;;;14.00;;
48403;SDS011;34202;52.536;6.042;2023-03-03T07:18:51;33.60;;;14.20;;
48403;SDS011;34202;52.536;6.042;2023-03-03T07:23:57;36.10;;;14.80;;
48403;SDS011;34202;52.536;6.042;2023-03-03T07:29:02;34.50;;;11.60;;
48403;SDS011;34202;52.536;6.042;2023-03-03T07:34:35;28.20;;;10.70;;
48403;SDS011;34202;52.536;6.042;2023-03-03T07:39:39;30.30;;;14.90;;
48403;SDS011;34202;52.536;6.042;2023-03-03T07:44:43;22.30;;;10.90;;
48403;SDS011;34202;52.536;6.042;2023-03-03T07:49:48;21.30;;;10.10;;
48403;SDS011;34202;52.536;6.042;2023-03-03T07:54:50;22.10;;;9.70;;
48403;SDS011;34202;52.536;6.042;2023-03-03T08:10:45;17.20;;;8.50;;
48403;SDS011;34202;52.536;6.042;2023-03-03T08:16:01;15.10;;;7.50;;
48403;SDS011;34202;52.536;6.042;2023-03-03T08:21:18;12.10;;;6.10;;
48403;SDS011;34202;52.536;6.042;2023-03-03T08:26:21;18.70;;;9.60;;
48403;SDS011;34202;52.536;6.042;2023-03-03T08:31:22;28.80;;;11.10;;
48403;SDS011;34202;52.536;6.042;2023-03-03T08:36:23;23.80;;;9.70;;
48403;SDS011;34202;52.536;6.042;2023-03-03T08:41:23;26.70;;;10.40;;
48403;SDS011;34202;52.536;6.042;2023-03-03T08:46:24;29.00;;;12.00;;
48403;SDS011;34202;52.536;6.042;2023-03-03T08:51:24;30.20;;;12.90;;
48403;SDS011;34202;52.536;6.042;2023-03-03T08:56:25;33.60;;;13.40;;
48403;SDS011;34202;52.536;6.042;2023-03-03T09:01:25;27.70;;;13.70;;
48403;SDS011;34202;52.536;6.042;2023-03-03T09:06:26;29.10;;;12.50;;
48403;SDS011;34202;52.536;6.042;2023-03-03T09:11:27;26.50;;;10.80;;
48403;SDS011;34202;52.536;6.042;2023-03-03T09:16:29;22.30;;;11.10;;
48403;SDS011;34202;52.536;6.042;2023-03-03T09:21:36;21.00;;;10.90;;
48403;SDS011;34202;52.536;6.042;2023-03-03T09:31:48;20.40;;;10.90;;
48403;SDS011;34202;52.536;6.042;2023-03-03T09:36:51;16.60;;;9.10;;
48403;SDS011;34202;52.536;6.042;2023-03-03T09:52:38;14.40;;;8.20;;
48403;SDS011;34202;52.536;6.042;2023-03-03T09:57:57;17.00;;;8.50;;
48403;SDS011;34202;52.536;6.042;2023-03-03T10:14:28;11.70;;;7.40;;
48403;SDS011;34202;52.536;6.042;2023-03-03T10:25:01;11.10;;;6.50;;
48403;SDS011;34202;52.536;6.042;2023-03-03T10:41:55;8.60;;;4.60;;
48403;SDS011;34202;52.536;6.042;2023-03-03T10:47:27;13.00;;;5.70;;
48403;SDS011;34202;52.536;6.042;2023-03-03T11:03:32;8.80;;;4.50;;
48403;SDS011;34202;52.536;6.042;2023-03-03T11:09:02;7.00;;;3.90;;
48403;SDS011;34202;52.536;6.042;2023-03-03T11:14:25;9.90;;;4.10;;
48403;SDS011;34202;52.536;6.042;2023-03-03T11:24:48;5.60;;;2.00;;
48403;SDS011;34202;52.536;6.042;2023-03-03T11:41:14;4.10;;;2.20;;
48403;SDS011;34202;52.536;6.042;2023-03-03T11:46:38;4.00;;;1.50;;
48403;SDS011;34202;52.536;6.042;2023-03-03T11:52:02;4.90;;;1.60;;
48403;SDS011;34202;52.536;6.042;2023-03-03T12:02:57;4.00;;;2.60;;
48403;SDS011;34202;52.536;6.042;2023-03-03T12:08:21;9.80;;;3.20;;
48403;SDS011;34202;52.536;6.042;2023-03-03T12:18:48;5.70;;;2.00;;
48403;SDS011;34202;52.536;6.042;2023-03-03T12:34:57;3.00;;;1.10;;
48403;SDS011;34202;52.536;6.042;2023-03-03T12:40:13;3.00;;;1.10;;
48403;SDS011;34202;52.536;6.042;2023-03-03T12:45:34;4.80;;;1.80;;
48403;SDS011;34202;52.536;6.042;2023-03-03T12:50:52;4.50;;;1.50;;
48403;SDS011;34202;52.536;6.042;2023-03-03T12:56:04;3.70;;;1.90;;
48403;SDS011;34202;52.536;6.042;2023-03-03T13:17:24;3.50;;;1.50;;
48403;SDS011;34202;52.536;6.042;2023-03-03T13:27:41;7.30;;;1.60;;
48403;SDS011;34202;52.536;6.042;2023-03-03T13:38:21;2.10;;;1.30;;
48403;SDS011;34202;52.536;6.042;2023-03-03T13:43:35;2.30;;;1.30;;
48403;SDS011;34202;52.536;6.042;2023-03-03T14:20:29;3.10;;;0.90;;
48403;SDS011;34202;52.536;6.042;2023-03-03T14:31:20;6.40;;;1.10;;
48403;SDS011;34202;52.536;6.042;2023-03-03T14:36:27;3.80;;;1.00;;
48403;SDS011;34202;52.536;6.042;2023-03-03T14:41:35;2.30;;;0.70;;
48403;SDS011;34202;52.536;6.042;2023-03-03T14:46:38;5.20;;;0.80;;
48403;SDS011;34202;52.536;6.042;2023-03-03T14:51:41;1.30;;;0.70;;
48403;SDS011;34202;52.536;6.042;2023-03-03T14:56:55;4.90;;;0.90;;
48403;SDS011;34202;52.536;6.042;2023-03-03T15:07:35;3.80;;;1.00;;
48403;SDS011;34202;52.536;6.042;2023-03-03T15:12:37;3.50;;;1.10;;
48403;SDS011;34202;52.536;6.042;2023-03-03T15:17:54;2.90;;;0.90;;
48403;SDS011;34202;52.536;6.042;2023-03-03T15:55:46;2.30;;;0.90;;
48403;SDS011;34202;52.536;6.042;2023-03-03T16:01:28;5.70;;;1.10;;
48403;SDS011;34202;52.536;6.042;2023-03-03T16:06:46;5.60;;;1.50;;
48403;SDS011;34202;52.536;6.042;2023-03-03T16:11:59;8.00;;;2.00;;
48403;SDS011;34202;52.536;6.042;2023-03-03T16:33:48;12.00;;;1.90;;
48403;SDS011;34202;52.536;6.042;2023-03-03T16:38:44;10.20;;;2.90;;
48403;SDS011;34202;52.536;6.042;2023-03-03T17:00:03;15.90;;;3.60;;
48403;SDS011;34202;52.536;6.042;2023-03-03T17:26:01;12.10;;;3.40;;
48403;SDS011;34202;52.536;6.042;2023-03-03T17:36:15;14.80;;;2.10;;
48403;SDS011;34202;52.536;6.042;2023-03-03T17:46:38;24.80;;;3.10;;
48403;SDS011;34202;52.536;6.042;2023-03-03T18:28:46;9.90;;;2.20;;
48403;SDS011;34202;52.536;6.042;2023-03-03T18:33:59;18.50;;;4.10;;
48403;SDS011;34202;52.536;6.042;2023-03-03T18:39:11;11.70;;;2.40;;
48403;SDS011;34202;52.536;6.042;2023-03-03T18:44:24;15.80;;;2.90;;
48403;SDS011;34202;52.536;6.042;2023-03-03T19:10:43;22.70;;;4.20;;
48403;SDS011;34202;52.536;6.042;2023-03-03T19:15:51;21.80;;;4.40;;
48403;SDS011;34202;52.536;6.042;2023-03-03T19:32:02;8.60;;;2.20;;
48403;SDS011;34202;52.536;6.042;2023-03-03T19:42:27;23.00;;;4.90;;
48403;SDS011;34202;52.536;6.042;2023-03-03T19:47:45;22.60;;;3.90;;
48403;SDS011;34202;52.536;6.042;2023-03-03T19:58:19;18.40;;;3.60;;
48403;SDS011;34202;52.536;6.042;2023-03-03T20:08:49;15.00;;;3.60;;
48403;SDS011;34202;52.536;6.042;2023-03-03T20:13:57;25.20;;;4.30;;
48403;SDS011;34202;52.536;6.042;2023-03-03T20:19:14;14.90;;;3.10;;
48403;SDS011;34202;52.536;6.042;2023-03-03T20:24:37;25.30;;;3.10;;
48403;SDS011;34202;52.536;6.042;2023-03-03T20:35:25;18.80;;;3.40;;
48403;SDS011;34202;52.536;6.042;2023-03-03T20:51:47;12.90;;;4.00;;
48403;SDS011;34202;52.536;6.042;2023-03-03T20:56:45;17.60;;;4.40;;
48403;SDS011;34202;52.536;6.042;2023-03-03T21:02:01;20.40;;;4.50;;
48403;SDS011;34202;52.536;6.042;2023-03-03T21:07:04;23.50;;;4.50;;
48403;SDS011;34202;52.536;6.042;2023-03-03T21:12:24;17.70;;;3.30;;
48403;SDS011;34202;52.536;6.042;2023-03-03T21:17:30;27.00;;;6.40;;
48403;SDS011;34202;52.536;6.042;2023-03-03T21:22:30;20.10;;;5.00;;
48403;SDS011;34202;52.536;6.042;2023-03-03T21:27:34;19.50;;;4.60;;
48403;SDS011;34202;52.536;6.042;2023-03-03T21:32:45;13.60;;;3.30;;
48403;SDS011;34202;52.536;6.042;2023-03-03T21:37:48;26.90;;;6.50;;
48403;SDS011;34202;52.536;6.042;2023-03-03T21:42:51;14.90;;;4.00;;
48403;SDS011;34202;52.536;6.042;2023-03-03T21:47:53;27.40;;;5.20;;
48403;SDS011;34202;52.536;6.042;2023-03-03T21:52:55;26.80;;;4.20;;
48403;SDS011;34202;52.536;6.042;2023-03-03T21:57:55;16.00;;;2.50;;
48403;SDS011;34202;52.536;6.042;2023-03-03T22:02:56;16.00;;;3.10;;
48403;SDS011;34202;52.536;6.042;2023-03-03T22:07:56;13.80;;;3.80;;
48403;SDS011;34202;52.536;6.042;2023-03-03T22:12:57;19.90;;;3.50;;
48403;SDS011;34202;52.536;6.042;2023-03-03T22:17:58;13.00;;;2.30;;
48403;SDS011;34202;52.536;6.042;2023-03-03T22:22:59;12.90;;;1.70;;
48403;SDS011;34202;52.536;6.042;2023-03-03T22:27:59;14.50;;;3.10;;
48403;SDS011;34202;52.536;6.042;2023-03-03T22:32:59;21.70;;;3.80;;
48403;SDS011;34202;52.536;6.042;2023-03-03T22:38:00;17.50;;;2.80;;
48403;SDS011;34202;52.536;6.042;2023-03-03T22:43:00;15.10;;;3.40;;
48403;SDS011;34202;52.536;6.042;2023-03-03T22:48:01;13.20;;;2.30;;
48403;SDS011;34202;52.536;6.042;2023-03-03T22:53:01;15.30;;;2.30;;
48403;SDS011;34202;52.536;6.042;2023-03-03T22:58:05;10.00;;;2.00;;
48403;SDS011;34202;52.536;6.042;2023-03-03T23:03:07;11.50;;;2.90;;
48403;SDS011;34202;52.536;6.042;2023-03-03T23:08:10;18.10;;;3.90;;
48403;SDS011;34202;52.536;6.042;2023-03-03T23:13:13;14.30;;;2.20;;
48403;SDS011;34202;52.536;6.042;2023-03-03T23:18:14;23.80;;;3.60;;
48403;SDS011;34202;52.536;6.042;2023-03-03T23:23:15;20.80;;;3.30;;
48403;SDS011;34202;52.536;6.042;2023-03-03T23:28:15;16.60;;;3.50;;
48403;SDS011;34202;52.536;6.042;2023-03-03T23:33:16;21.90;;;4.10;;
48403;SDS011;34202;52.536;6.042;2023-03-03T23:38:16;13.70;;;2.80;;
48403;SDS011;34202;52.536;6.042;2023-03-03T23:43:16;16.30;;;2.60;;
48403;SDS011;34202;52.536;6.042;2023-03-03T23:48:17;13.90;;;2.90;;
48403;SDS011;34202;52.536;6.042;2023-03-03T23:53:17;18.00;;;2.80;;
48403;SDS011;34202;52.536;6.042;2023-03-03T23:58:18;14.00;;;2.20;;
